Flight Track Log - Related Links

Times and Time Zones

All times are in EDT time to prevent confusion due to time zone crossing. See the WBR2907 flight status page for this flight to view local times or setup timezone preferences in your user account.


Time Position Orientation Groundspeed Altitude Reporting Facility
EDT Latitude Longitude Course Direction KTS MPH feet Rate Location/Type
Sat 08:21:32 AM 40.7658 -91.1239 160° South 77 89 1,200  Level Kansas City Center
Sat 08:22:33 AM 40.7436 -91.1131 160° South 79 91 1,800 762 Climbing Kansas City Center
Sat 08:23:38 AM 40.7181 -91.1042 165° South 96 110 2,800 905 Climbing Chicago Center
Sat 08:24:39 AM 40.6842 -91.0925 165° South 102 117 3,700 787 Climbing Chicago Center
Sat 08:25:40 AM 40.6558 -91.0828 165° South 105 121 4,400 634 Climbing Chicago Center
Sat 08:26:42 AM 40.6258 -91.0700 162° South 109 125 5,000 341 Climbing Chicago Center
Sat 08:27:43 AM 40.5906 -91.0519 159° South 125 144 5,100  Climbing Chicago Center
Sat 08:28:45 AM 40.5511 -91.0375 164° South 139 160 5,000 -49 Descending Chicago Center
Sat 08:29:46 AM 40.5131 -91.0231 164° South 143 165 5,000 49 Level Chicago Center
Sat 08:30:48 AM 40.4742 -91.0083 164° South 144 166 5,100 49 Climbing Chicago Center
Sat 08:31:49 AM 40.4331 -90.9939 165° South 149 171 5,100  Level Chicago Center
Sat 08:32:50 AM 40.3903 -90.9781 164° South 140 161 5,100  Level Chicago Center
Sat 08:33:45 AM 40.3589 -90.9731 173° South 139 160 5,100 -52 Level Kansas City Center
Sat 08:34:46 AM 40.3200 -90.9581 164° South 143 165 5,000  Descending Kansas City Center
Sat 08:35:47 AM 40.2856 -90.9325 150° Southeast 143 165 5,100  Climbing Kansas City Center
Sat 08:36:48 AM 40.2478 -90.9178 163° South 142 163 5,000  Descending Kansas City Center
Sat 08:37:49 AM 40.2094 -90.9047 165° South 142 163 5,100 49 Climbing Kansas City Center
Sat 08:38:50 AM 40.1722 -90.8900 163° South 141 162 5,100  Level Kansas City Center
Sat 08:39:51 AM 40.1256 -90.8733 165° South 143 165 5,100  Level Kansas City Center
Sat 08:40:52 AM 40.0858 -90.8617 167° South 145 167 5,100 -49 Level Kansas City Center
Sat 08:41:53 AM 40.0472 -90.8458 163° South 146 168 5,000 -49 Descending Kansas City Center
Sat 08:42:54 AM 40.0092 -90.8308 163° South 144 166 5,000 49 Level Kansas City Center
Sat 08:43:55 AM 39.9708 -90.8172 165° South 144 166 5,100  Climbing Kansas City Center
Sat 08:44:57 AM 39.9322 -90.8017 163° South 144 166 5,000  Descending Kansas City Center
Sat 08:45:58 AM 39.8919 -90.7903 168° South 147 169 5,100 49 Climbing Kansas City Center
Sat 08:46:59 AM 39.8542 -90.7747 162° South 145 167 5,100  Level Kansas City Center
Sat 08:48:00 AM 39.8142 -90.7594 164° South 148 170 5,100  Level Kansas City Center
Sat 08:49:01 AM 39.7756 -90.7458 165° South 145 167 5,100  Level Kansas City Center
Sat 08:50:02 AM 39.7289 -90.7272 163° South 148 170 5,100 -49 Level Kansas City Center
Sat 08:51:03 AM 39.6886 -90.7147 167° South 149 171 5,000 -49 Descending Kansas City Center
Sat 08:52:04 AM 39.6486 -90.6992 163° South 149 171 5,000  Level Kansas City Center
Sat 08:53:05 AM 39.6089 -90.6822 162° South 150 173 5,000  Level Kansas City Center
Sat 08:54:07 AM 39.5706 -90.6689 165° South 145 167 5,000  Level Kansas City Center
Sat 08:55:08 AM 39.5308 -90.6531 163° South 147 169 5,000  Level Kansas City Center
Sat 08:56:09 AM 39.4900 -90.6400 166° South 150 173 5,000  Level Kansas City Center
Sat 08:57:10 AM 39.4497 -90.6272 166° South 149 171 5,000  Level Kansas City Center
Sat 08:58:11 AM 39.4103 -90.6100 161° South 149 171 5,000  Level Kansas City Center
Sat 08:59:12 AM 39.3706 -90.5922 161° South 151 174 5,000  Level Kansas City Center
Sat 09:00:13 AM 39.3244 -90.5756 164° South 145 167 5,000  Level Kansas City Center
Sat 09:01:15 AM 39.2856 -90.5594 162° South 146 168 5,000 49 Level Kansas City Center
Sat 09:02:16 AM 39.2461 -90.5464 166° South 146 168 5,100 49 Climbing Kansas City Center
Sat 09:03:17 AM 39.2067 -90.5286 161° South 148 170 5,100 -49 Level Kansas City Center
Sat 09:04:18 AM 39.1681 -90.5181 168° South 145 167 5,000 -49 Descending Kansas City Center
Sat 09:05:19 AM 39.1269 -90.5089 170° South 147 169 5,000  Level Kansas City Center
Sat 09:06:20 AM 39.0864 -90.4928 163° South 150 173 5,000  Level Kansas City Center
Sat 09:07:22 AM 39.0489 -90.4767 162° South 146 168 5,000 -244 Level Kansas City Center
Sat 09:08:23 AM 39.0089 -90.4619 164° South 147 169 4,500 -443 Descending Kansas City Center
Sat 09:09:24 AM 38.9703 -90.4494 166° South 145 167 4,100 -492 Descending Kansas City Center
Sat 09:10:25 AM 38.9214 -90.4514 182° South 145 167 3,500 -585 Descending Kansas City Center
Sat 09:11:27 AM 38.8819 -90.4503 179° South 144 166 2,900 -537 Descending Kansas City Center
Sat 09:12:28 AM 38.8414 -90.4503 180° South 145 167 2,400 -344 Descending Kansas City Center
Sat 09:13:29 AM 38.8025 -90.4461 175° South 142 163 2,200 -488 Descending Kansas City Center
Sat 09:14:31 AM 38.7728 -90.4178 143° Southeast 138 159 1,400 -732 Descending Kansas City Center
Sat 09:15:32 AM 38.7536 -90.3783 122° Southeast 133 153 700 -689 Descending Kansas City Center
Sat 09:17:00 AM 38.7487 -90.3700 165° South  Level Estimated

Login

Don't have an account? Register now (free) for customized features, flight alerts, and more!